Portada
METAR-TAF:

METAR-TAF

Aeropuertos :

Curazao, Antillas Neerlandesas

Aeropuerto Internacional Hato

latitud: 12-12N, longitud: 068-58W, altitud: 9 m

Observación

El informe se hizo hace 18 minutos, a las 06:00 UTC
Viento 15 kt del este
Temperatura 26°C
Humedad 84%
Presión 1012 hPa
Visibilidad 10 km o más

METAR: TNCC 270600Z AUTO 10015KT 9999 NSC 26/23 Q1012 NOSIG

Hora: 02:18 (06:18 UTC)

Pronóstico

El informe se hizo hace 2 horas y 18 minutos, a las 04:00 UTC
Pronóstico válido del 27 a las 06 UTC al 28 a las 06 UTC
Viento 14 kt del este
Visibilidad 10 km o más
Nubes dispersas a una altura de 2000 ft

TAF: TNCC 270400Z 2706/2806 10014KT 9999 SCT020

Observaciones y pronósticos meteorológicos de más de 4000 aeropuertos (mensajes METAR y TAF).

Los puntos amarillos y rojos representan las estaciones disponibles.

Ponga el ratón en el punto deseado para ver el nombre de la estación.

Haga clic para ver las observaciones y los pronósticos meteorológicos.

Para cambiar el mapa : haga clic en los botones verdes con una cruz de color negro para hacer un zoom, en el botón verde con un guión para alejar o en las flechas verdes para mapas adyacentes.


METAR-TAF: